Time;durP1;ratioP1;P1;durP2;ratioP2;P2;SDS_P1;SDS_P2;PMS_P1;PMS_P2;Temp;Humidity;BMP_temperature;BMP_pressure;BME280_temperature;BME280_humidity;BME280_pressure;Samples;Min_cycle;Max_cycle;Signal;HPM_P1;HPM_P2
2023/12/01 11:05:34;;;;;;;5.70;3.35;;;;;;;;;;5110330;27;20397;-63
2023/12/01 11:08:03;;;;;;;8.82;2.88;;;;;;;;;;5110595;28;20035;-63
2023/12/01 11:10:37;;;;;;;5.13;3.58;;;;;;;;;;5110207;28;20043;-63
2023/12/01 11:13:39;;;;;;;4.55;3.03;;;;;;;;;;5105579;28;20059;-62
2023/12/01 11:16:07;;;;;;;12.20;3.15;;;;;;;;;;5109551;28;20034;-63
2023/12/01 11:18:32;;;;;;;10.10;3.40;;;;;;;;;;5108535;28;20069;-70
2023/12/01 11:20:58;;;;;;;5.35;3.20;;;;;;;;;;5108424;28;20032;-63
2023/12/01 11:23:25;;;;;;;9.40;3.60;;;;;;;;;;5108415;28;20059;-64
2023/12/01 11:25:55;;;;;;;8.30;3.55;;;;;;;;;;5108264;28;20067;-62
2023/12/01 11:31:43;;;;;;;;;;;;;;;;;;5110289;28;20417;-64
2023/12/01 11:34:12;;;;;;;3.95;3.65;;;;;;;;;;5106184;28;19958;-64
2023/12/01 11:36:48;;;;;;;6.03;3.45;;;;;;;;;;5107611;28;20034;-63
2023/12/01 11:39:23;;;;;;;3.33;3.03;;;;;;;;;;5105985;28;20070;-63
2023/12/01 11:41:57;;;;;;;6.15;3.53;;;;;;;;;;5107794;28;20539;-63
2023/12/01 11:44:34;;;;;;;7.90;3.25;;;;;;;;;;5108206;28;20071;-64
2023/12/01 11:47:02;;;;;;;6.20;3.22;;;;;;;;;;5108840;28;20020;-64
2023/12/01 11:49:31;;;;;;;6.05;3.08;;;;;;;;;;5106853;28;20427;-64
2023/12/01 11:51:57;;;;;;;3.60;3.30;;;;;;;;;;5108439;28;20051;-63
2023/12/01 11:54:23;;;;;;;4.03;3.10;;;;;;;;;;5107392;28;20048;-64
2023/12/01 11:56:51;;;;;;;6.18;3.75;;;;;;;;;;5108332;28;20076;-64
2023/12/01 11:59:18;;;;;;;4.32;3.72;;;;;;;;;;5108288;28;20407;-64
2023/12/01 12:01:45;;;;;;;5.38;3.90;;;;;;;;;;5109398;28;20028;-64
2023/12/01 12:04:13;;;;;;;5.57;3.40;;;;;;;;;;5109258;28;20053;-64
2023/12/01 12:06:39;;;;;;;3.90;3.50;;;;;;;;;;5109419;28;20035;-64
2023/12/01 12:09:08;;;;;;;5.35;3.15;;;;;;;;;;5109364;28;20019;-64
2023/12/01 12:11:35;;;;;;;4.45;3.63;;;;;;;;;;5109413;28;20102;-64
2023/12/01 12:14:02;;;;;;;4.70;3.10;;;;;;;;;;5109113;28;20032;-63
2023/12/01 12:16:28;;;;;;;4.20;3.47;;;;;;;;;;5098154;28;20441;-63
2023/12/01 12:18:58;;;;;;;4.00;3.42;;;;;;;;;;5095691;28;20161;-64
2023/12/01 12:21:23;;;;;;;4.78;3.72;;;;;;;;;;5095259;28;20024;-64
2023/12/01 12:23:49;;;;;;;6.68;4.00;;;;;;;;;;5095303;28;20055;-64
2023/12/01 12:26:20;;;;;;;4.45;3.67;;;;;;;;;;5095548;28;20120;-63
2023/12/01 12:28:56;;;;;;;5.50;3.63;;;;;;;;;;5095295;28;20521;-63
2023/12/01 12:31:35;;;;;;;4.65;3.80;;;;;;;;;;5095364;28;20116;-64
2023/12/01 12:34:01;;;;;;;5.82;3.92;;;;;;;;;;5095159;28;20518;-63
2023/12/01 12:36:31;;;;;;;4.60;3.47;;;;;;;;;;5095025;28;20030;-63
2023/12/01 12:39:03;;;;;;;4.00;3.40;;;;;;;;;;5094956;28;20024;-64
2023/12/01 12:41:35;;;;;;;4.13;3.40;;;;;;;;;;5094941;28;20174;-63
2023/12/01 12:44:02;;;;;;;4.10;3.70;;;;;;;;;;5094888;28;20031;-63
2023/12/01 12:46:29;;;;;;;4.30;3.85;;;;;;;;;;5094881;28;20472;-63
2023/12/01 12:49:00;;;;;;;4.00;3.50;;;;;;;;;;5095076;28;20389;-64
2023/12/01 12:51:28;;;;;;;3.95;3.55;;;;;;;;;;5094802;28;20112;-64
2023/12/01 12:53:56;;;;;;;5.47;3.40;;;;;;;;;;5094760;28;20027;-64
2023/12/01 12:56:22;;;;;;;4.10;3.25;;;;;;;;;;5094747;28;20056;-63
2023/12/01 12:58:52;;;;;;;5.93;3.50;;;;;;;;;;5095044;28;20020;-64
2023/12/01 13:01:18;;;;;;;;;;;;;;;;;;5095039;28;20027;-64
2023/12/01 13:03:44;;;;;;;3.72;3.42;;;;;;;;;;5094424;28;19920;-64
2023/12/01 13:06:10;;;;;;;3.95;3.40;;;;;;;;;;5095400;28;20028;-64
2023/12/01 13:08:37;;;;;;;5.38;3.30;;;;;;;;;;5094608;28;20099;-64
2023/12/01 13:11:04;;;;;;;7.78;3.70;;;;;;;;;;5094400;28;20030;-71
2023/12/01 13:13:30;;;;;;;3.95;3.50;;;;;;;;;;5094554;28;20073;-64
2023/12/01 13:15:57;;;;;;;3.70;3.15;;;;;;;;;;5094371;28;20059;-64
2023/12/01 13:18:23;;;;;;;3.92;3.50;;;;;;;;;;5094290;28;20418;-64
2023/12/01 13:20:49;;;;;;;4.43;3.20;;;;;;;;;;5094205;28;20024;-63
2023/12/01 13:23:17;;;;;;;3.88;3.47;;;;;;;;;;5094765;28;20078;-64
2023/12/01 13:25:44;;;;;;;3.40;3.10;;;;;;;;;;5094572;28;20443;-64
2023/12/01 13:28:09;;;;;;;4.07;3.30;;;;;;;;;;5093140;28;20028;-63
2023/12/01 13:30:35;;;;;;;4.55;3.35;;;;;;;;;;5094014;28;20176;-63
2023/12/01 13:33:01;;;;;;;3.95;3.22;;;;;;;;;;5094251;28;20035;-64
2023/12/01 13:35:27;;;;;;;7.22;3.30;;;;;;;;;;5093790;28;20028;-64
2023/12/01 13:37:53;;;;;;;3.80;3.30;;;;;;;;;;5094178;28;20024;-64
2023/12/01 13:40:20;;;;;;;3.83;3.20;;;;;;;;;;5093798;28;20032;-64
2023/12/01 13:42:46;;;;;;;3.75;3.30;;;;;;;;;;5093539;28;20063;-65
2023/12/01 13:45:12;;;;;;;3.05;2.75;;;;;;;;;;5093105;28;20028;-65
2023/12/01 13:47:40;;;;;;;3.72;3.25;;;;;;;;;;5081949;28;20383;-63
2023/12/01 13:50:06;;;;;;;3.83;3.20;;;;;;;;;;5080822;28;20055;-64
2023/12/01 13:52:32;;;;;;;4.53;3.15;;;;;;;;;;5071279;28;20107;-64
2023/12/01 13:54:57;;;;;;;5.07;3.10;;;;;;;;;;5070033;28;20429;-64
2023/12/01 13:57:23;;;;;;;3.70;3.40;;;;;;;;;;5071543;28;20036;-64
2023/12/01 13:59:49;;;;;;;3.63;3.10;;;;;;;;;;5071369;28;20043;-65
2023/12/01 14:02:18;;;;;;;4.05;3.05;;;;;;;;;;5072748;28;20028;-64
2023/12/01 14:04:44;;;;;;;4.38;3.28;;;;;;;;;;5072142;28;20496;-64
2023/12/01 14:07:10;;;;;;;3.83;3.20;;;;;;;;;;5071650;28;20032;-63
2023/12/01 14:09:36;;;;;;;5.05;3.40;;;;;;;;;;5072342;28;20441;-64
2023/12/01 14:12:03;;;;;;;3.75;3.17;;;;;;;;;;5072145;28;20055;-64
2023/12/01 14:14:29;;;;;;;3.88;3.15;;;;;;;;;;5072472;28;20025;-64
2023/12/01 14:16:55;;;;;;;4.78;3.20;;;;;;;;;;5072684;28;20082;-64
2023/12/01 14:19:20;;;;;;;3.75;3.10;;;;;;;;;;5072369;28;20032;-63
2023/12/01 14:21:46;;;;;;;6.32;3.20;;;;;;;;;;5072798;28;20017;-63
2023/12/01 14:24:12;;;;;;;5.63;3.35;;;;;;;;;;5072703;28;20025;-64
2023/12/01 14:26:38;;;;;;;4.68;3.40;;;;;;;;;;5072577;28;20083;-64
2023/12/01 14:29:06;;;;;;;3.70;3.30;;;;;;;;;;5072618;28;20063;-64
2023/12/01 14:31:32;;;;;;;4.22;3.30;;;;;;;;;;5072265;28;20035;-64
2023/12/01 14:33:58;;;;;;;4.07;3.15;;;;;;;;;;5072625;28;20024;-64
2023/12/01 14:36:24;;;;;;;3.97;3.10;;;;;;;;;;5071899;28;20154;-64
2023/12/01 14:38:53;;;;;;;3.30;3.00;;;;;;;;;;5072283;28;20032;-64
2023/12/01 14:41:19;;;;;;;3.97;3.30;;;;;;;;;;5072603;28;20028;-64
2023/12/01 14:43:44;;;;;;;3.42;3.10;;;;;;;;;;5072520;28;20025;-64
2023/12/01 14:46:10;;;;;;;3.08;2.78;;;;;;;;;;5071099;28;20029;-64
2023/12/01 14:48:36;;;;;;;3.60;2.90;;;;;;;;;;5071179;28;20021;-63
2023/12/01 14:51:01;;;;;;;4.43;3.15;;;;;;;;;;5072699;28;20473;-64
2023/12/01 14:53:27;;;;;;;4.82;2.80;;;;;;;;;;5072493;28;20025;-64
2023/12/01 14:55:52;;;;;;;2.85;2.65;;;;;;;;;;5072462;28;20086;-63
2023/12/01 14:58:18;;;;;;;3.55;3.00;;;;;;;;;;5072416;28;20029;-64
2023/12/01 15:00:43;;;;;;;3.55;3.05;;;;;;;;;;5072269;28;20107;-64
2023/12/01 15:03:09;;;;;;;4.25;3.00;;;;;;;;;;5072144;28;20027;-64
2023/12/01 15:05:34;;;;;;;3.33;2.90;;;;;;;;;;5072281;28;20028;-64
2023/12/01 15:08:00;;;;;;;4.45;3.20;;;;;;;;;;5072276;28;20085;-63
2023/12/01 15:10:26;;;;;;;3.10;2.80;;;;;;;;;;5072319;28;20050;-64
2023/12/01 15:12:51;;;;;;;3.45;2.92;;;;;;;;;;5072190;28;20032;-63
2023/12/01 15:15:18;;;;;;;3.50;3.20;;;;;;;;;;5072061;28;20103;-63
2023/12/01 15:17:43;;;;;;;3.30;3.00;;;;;;;;;;5072430;28;20070;-64
2023/12/01 15:20:10;;;;;;;3.47;3.10;;;;;;;;;;5072136;28;20472;-64
2023/12/01 15:22:35;;;;;;;3.00;2.67;;;;;;;;;;5072334;28;20059;-64
2023/12/01 15:25:01;;;;;;;3.42;2.90;;;;;;;;;;5072034;28;20083;-64
2023/12/01 15:27:26;;;;;;;3.15;2.70;;;;;;;;;;5072222;28;20020;-64
2023/12/01 15:29:53;;;;;;;2.92;2.65;;;;;;;;;;5072022;28;20100;-63
2023/12/01 15:32:18;;;;;;;3.90;3.50;;;;;;;;;;5071894;28;20157;-64
2023/12/01 15:34:44;;;;;;;3.15;2.85;;;;;;;;;;5071980;28;20506;-63
2023/12/01 15:37:10;;;;;;;3.78;2.90;;;;;;;;;;5071896;28;20025;-64
2023/12/01 15:39:37;;;;;;;3.20;2.90;;;;;;;;;;5072216;28;20107;-64
2023/12/01 15:42:02;;;;;;;3.00;2.70;;;;;;;;;;5071939;28;20052;-64
2023/12/01 15:44:28;;;;;;;2.83;2.63;;;;;;;;;;5071880;28;20063;-63
2023/12/01 15:46:54;;;;;;;3.13;2.83;;;;;;;;;;5071934;28;20035;-64
2023/12/01 15:49:20;;;;;;;3.42;2.90;;;;;;;;;;5072137;28;20025;-64
2023/12/01 15:51:46;;;;;;;3.13;2.92;;;;;;;;;;5074606;28;20154;-63
2023/12/01 15:54:12;;;;;;;3.20;2.95;;;;;;;;;;5075592;28;20104;-63
2023/12/01 15:56:39;;;;;;;3.10;2.80;;;;;;;;;;5075588;28;20089;-64
2023/12/01 15:59:04;;;;;;;3.00;2.80;;;;;;;;;;5075762;28;20031;-64
2023/12/01 16:01:30;;;;;;;2.63;2.40;;;;;;;;;;5075767;28;20067;-64
2023/12/01 16:03:55;;;;;;;2.70;2.50;;;;;;;;;;5075321;28;20488;-63
2023/12/01 16:06:21;;;;;;;2.90;2.60;;;;;;;;;;5075689;28;20427;-63
2023/12/01 16:08:47;;;;;;;2.85;2.60;;;;;;;;;;5075289;28;20384;-64
2023/12/01 16:11:12;;;;;;;2.88;2.67;;;;;;;;;;5073939;28;20016;-64
2023/12/01 16:13:38;;;;;;;2.78;2.50;;;;;;;;;;5075545;28;20103;-64
2023/12/01 16:16:04;;;;;;;3.08;2.72;;;;;;;;;;5075242;28;20194;-64
2023/12/01 16:18:29;;;;;;;2.92;2.70;;;;;;;;;;5075082;28;20025;-64
2023/12/01 16:20:55;;;;;;;3.13;2.72;;;;;;;;;;5075527;28;20036;-63
2023/12/01 16:23:20;;;;;;;2.92;2.72;;;;;;;;;;5075342;28;20380;-63
2023/12/01 16:25:47;;;;;;;3.00;2.80;;;;;;;;;;5074970;28;20358;-64
2023/12/01 16:28:12;;;;;;;2.97;2.55;;;;;;;;;;5075065;28;20017;-64
2023/12/01 16:30:38;;;;;;;3.42;2.88;;;;;;;;;;5075001;28;20397;-64
2023/12/01 16:33:04;;;;;;;3.05;2.78;;;;;;;;;;5074848;28;20078;-63
2023/12/01 16:35:29;;;;;;;2.92;2.70;;;;;;;;;;5075086;28;20468;-64
2023/12/01 16:37:56;;;;;;;2.67;2.47;;;;;;;;;;5074803;28;20024;-64
2023/12/01 16:40:22;;;;;;;2.95;2.65;;;;;;;;;;5075026;28;20035;-64
2023/12/01 16:42:47;;;;;;;3.20;2.63;;;;;;;;;;5074806;28;20021;-64
2023/12/01 16:45:13;;;;;;;2.58;2.38;;;;;;;;;;5074979;28;20028;-64
2023/12/01 16:47:39;;;;;;;2.90;2.60;;;;;;;;;;5073336;28;20481;-64
2023/12/01 16:50:05;;;;;;;2.70;2.50;;;;;;;;;;5074816;28;20074;-64
2023/12/01 16:52:31;;;;;;;2.95;2.65;;;;;;;;;;5074777;28;20032;-64
2023/12/01 16:54:57;;;;;;;3.28;2.80;;;;;;;;;;5074645;28;20085;-63
2023/12/01 16:57:23;;;;;;;2.95;2.75;;;;;;;;;;5074480;28;20028;-64
2023/12/01 16:59:49;;;;;;;3.20;2.90;;;;;;;;;;5074806;28;20027;-64
2023/12/01 17:02:14;;;;;;;2.95;2.67;;;;;;;;;;5074676;28;20102;-63
2023/12/01 17:04:40;;;;;;;2.80;2.60;;;;;;;;;;5074101;28;20240;-68
2023/12/01 17:07:07;;;;;;;4.82;3.00;;;;;;;;;;5073597;28;20034;-68
2023/12/01 17:09:33;;;;;;;5.40;3.13;;;;;;;;;;5072313;28;20025;-67
2023/12/01 17:11:59;;;;;;;3.00;2.72;;;;;;;;;;5072494;28;20040;-67
2023/12/01 17:14:24;;;;;;;2.90;2.60;;;;;;;;;;5072419;28;20032;-68
2023/12/01 17:16:50;;;;;;;2.85;2.63;;;;;;;;;;5072482;28;20085;-67
2023/12/01 17:19:15;;;;;;;4.80;2.80;;;;;;;;;;5072436;28;20111;-68
2023/12/01 17:21:41;;;;;;;3.20;2.90;;;;;;;;;;5072305;28;20020;-68
2023/12/01 17:24:06;;;;;;;4.18;3.10;;;;;;;;;;5072270;28;20028;-68
2023/12/01 17:26:32;;;;;;;4.13;2.95;;;;;;;;;;5072242;28;20028;-68
2023/12/01 17:28:57;;;;;;;4.28;2.85;;;;;;;;;;5072264;28;20021;-68
2023/12/01 17:31:24;;;;;;;4.25;2.83;;;;;;;;;;5072107;28;20472;-68
2023/12/01 17:33:49;;;;;;;6.95;3.00;;;;;;;;;;5072043;28;20039;-66
2023/12/01 17:36:15;;;;;;;2.83;2.63;;;;;;;;;;5072082;28;20095;-66
2023/12/01 17:38:41;;;;;;;3.05;2.75;;;;;;;;;;5072037;28;20032;-68
2023/12/01 17:41:07;;;;;;;2.97;2.67;;;;;;;;;;5072060;28;20028;-67
2023/12/01 17:43:33;;;;;;;2.90;2.47;;;;;;;;;;5071824;28;20033;-65
2023/12/01 17:45:59;;;;;;;2.88;2.67;;;;;;;;;;5071888;28;20036;-67
2023/12/01 17:48:25;;;;;;;4.90;2.65;;;;;;;;;;5071877;28;20031;-67
2023/12/01 17:50:50;;;;;;;3.85;2.92;;;;;;;;;;5072036;28;20103;-68
2023/12/01 17:53:16;;;;;;;2.85;2.65;;;;;;;;;;5073015;28;20504;-67
2023/12/01 17:55:41;;;;;;;3.00;2.63;;;;;;;;;;5073195;28;20024;-68
2023/12/01 17:58:07;;;;;;;10.00;2.78;;;;;;;;;;5073094;28;20108;-68
2023/12/01 18:00:33;;;;;;;3.13;2.50;;;;;;;;;;5073385;28;20090;-68
2023/12/01 18:02:58;;;;;;;3.25;2.60;;;;;;;;;;5073039;28;20048;-67
2023/12/01 18:05:24;;;;;;;4.97;2.83;;;;;;;;;;5072755;28;20049;-67
2023/12/01 18:07:49;;;;;;;2.83;2.63;;;;;;;;;;5072968;28;20499;-67
2023/12/01 18:10:15;;;;;;;3.05;2.50;;;;;;;;;;5072949;28;20016;-68
2023/12/01 18:12:40;;;;;;;4.15;3.05;;;;;;;;;;5072966;28;20025;-66
2023/12/01 18:15:06;;;;;;;2.80;2.53;;;;;;;;;;5072489;28;20025;-65
2023/12/01 18:17:32;;;;;;;2.70;2.50;;;;;;;;;;5073114;28;20031;-66
2023/12/01 18:19:57;;;;;;;3.13;2.60;;;;;;;;;;5072747;28;20023;-66
2023/12/01 18:22:23;;;;;;;3.55;2.53;;;;;;;;;;5072879;28;20040;-67
2023/12/01 18:24:48;;;;;;;6.32;2.83;;;;;;;;;;5073001;28;20372;-66
2023/12/01 18:27:19;;;;;;;3.22;2.70;;;;;;;;;;5072616;28;20058;-66
2023/12/01 18:29:44;;;;;;;;;;;;;;;;;;5073189;28;20036;-67
2023/12/01 18:32:10;;;;;;;5.15;2.50;;;;;;;;;;5072719;28;19912;-66
2023/12/01 18:34:36;;;;;;;2.80;2.60;;;;;;;;;;5072457;28;20028;-67
2023/12/01 18:37:01;;;;;;;3.03;2.72;;;;;;;;;;5072671;28;20070;-66
2023/12/01 18:39:27;;;;;;;4.10;2.78;;;;;;;;;;5072550;28;20024;-66
2023/12/01 18:41:52;;;;;;;2.55;2.35;;;;;;;;;;5072519;28;20025;-67
2023/12/01 18:44:18;;;;;;;2.70;2.50;;;;;;;;;;5072537;28;20036;-67
2023/12/01 18:46:45;;;;;;;4.18;2.60;;;;;;;;;;5072675;28;20024;-66
2023/12/01 18:49:11;;;;;;;6.55;2.70;;;;;;;;;;5072298;28;20185;-68
2023/12/01 18:51:41;;;;;;;2.58;2.38;;;;;;;;;;5072495;28;20036;-67
2023/12/01 18:54:06;;;;;;;17.90;3.42;;;;;;;;;;5072710;28;20036;-67
2023/12/01 18:56:32;;;;;;;3.15;2.80;;;;;;;;;;5072399;28;20032;-67
2023/12/01 18:58:57;;;;;;;2.88;2.50;;;;;;;;;;5072396;28;20111;-69
2023/12/01 19:01:23;;;;;;;2.70;2.50;;;;;;;;;;5072284;28;20126;-66
2023/12/01 19:03:48;;;;;;;8.07;2.80;;;;;;;;;;5072143;28;20068;-66
2023/12/01 19:06:14;;;;;;;11.15;3.25;;;;;;;;;;5072303;28;20116;-69
2023/12/01 19:08:39;;;;;;;4.95;2.90;;;;;;;;;;5072162;28;20024;-67
2023/12/01 19:11:05;;;;;;;7.63;2.70;;;;;;;;;;5072245;28;20020;-68
2023/12/01 19:13:31;;;;;;;6.10;3.30;;;;;;;;;;5072443;28;20027;-70
2023/12/01 19:15:56;;;;;;;4.32;2.97;;;;;;;;;;5072160;28;20025;-66
2023/12/01 19:18:22;;;;;;;10.00;3.58;;;;;;;;;;5072173;28;20035;-66
2023/12/01 19:20:48;;;;;;;4.43;3.17;;;;;;;;;;5072250;28;20138;-66
2023/12/01 19:23:14;;;;;;;8.35;3.53;;;;;;;;;;5072231;28;20036;-69
2023/12/01 19:25:39;;;;;;;3.55;3.25;;;;;;;;;;5073265;28;20056;-67
2023/12/01 19:28:05;;;;;;;5.75;3.30;;;;;;;;;;5076391;28;20024;-67
2023/12/01 19:30:30;;;;;;;8.30;3.90;;;;;;;;;;5076000;28;20093;-67
2023/12/01 19:32:56;;;;;;;5.78;3.25;;;;;;;;;;5076032;28;20032;-66
2023/12/01 19:35:21;;;;;;;7.55;3.50;;;;;;;;;;5076250;28;20024;-67
2023/12/01 19:37:48;;;;;;;8.23;3.70;;;;;;;;;;5075963;28;20027;-67
2023/12/01 19:40:14;;;;;;;6.85;3.85;;;;;;;;;;5076106;28;20111;-68
2023/12/01 19:42:40;;;;;;;6.43;3.50;;;;;;;;;;5075947;28;20424;-67
2023/12/01 19:45:06;;;;;;;7.63;3.90;;;;;;;;;;5075939;28;20062;-66
2023/12/01 19:47:32;;;;;;;8.82;4.25;;;;;;;;;;5076012;28;20499;-66
2023/12/01 19:49:57;;;;;;;6.90;3.95;;;;;;;;;;5074500;28;20048;-65
2023/12/01 19:52:23;;;;;;;8.25;4.13;;;;;;;;;;5074284;28;20028;-65
2023/12/01 19:54:48;;;;;;;7.80;3.83;;;;;;;;;;5075008;28;20031;-66
2023/12/01 19:57:14;;;;;;;7.90;4.28;;;;;;;;;;5074659;28;20111;-67
2023/12/01 19:59:39;;;;;;;7.35;4.07;;;;;;;;;;5075286;28;20055;-66
2023/12/01 20:02:05;;;;;;;6.28;4.55;;;;;;;;;;5075658;28;20032;-66
2023/12/01 20:04:30;;;;;;;8.60;4.40;;;;;;;;;;5075153;28;20037;-66
2023/12/01 20:06:56;;;;;;;5.05;4.50;;;;;;;;;;5075142;28;20024;-67
2023/12/01 20:09:21;;;;;;;11.50;4.40;;;;;;;;;;5075245;28;20380;-67
2023/12/01 20:11:47;;;;;;;5.97;4.57;;;;;;;;;;5075031;28;20036;-66
2023/12/01 20:14:12;;;;;;;6.22;4.32;;;;;;;;;;5073582;28;20106;-67
2023/12/01 20:16:41;;;;;;;10.40;4.45;;;;;;;;;;5073579;28;20421;-67
2023/12/01 20:19:08;;;;;;;8.43;4.50;;;;;;;;;;5073637;28;20051;-66
2023/12/01 20:21:33;;;;;;;7.95;4.18;;;;;;;;;;5089092;28;20027;-67
2023/12/01 20:23:59;;;;;;;5.28;4.13;;;;;;;;;;5094915;28;20071;-66
2023/12/01 20:26:24;;;;;;;6.97;4.88;;;;;;;;;;5095166;28;20104;-66
2023/12/01 20:28:50;;;;;;;6.55;4.00;;;;;;;;;;5095059;28;20388;-67
2023/12/01 20:31:15;;;;;;;8.75;5.07;;;;;;;;;;5095213;28;20069;-65
2023/12/01 20:33:41;;;;;;;5.55;3.75;;;;;;;;;;5095025;28;20024;-66
2023/12/01 20:36:07;;;;;;;6.70;4.53;;;;;;;;;;5093244;28;20025;-70
2023/12/01 20:38:35;;;;;;;9.55;4.38;;;;;;;;;;5095068;28;20035;-67
2023/12/01 20:41:04;;;;;;;6.03;4.63;;;;;;;;;;5093587;28;20111;-68
2023/12/01 20:43:30;;;;;;;6.88;4.25;;;;;;;;;;5094878;28;20020;-66
2023/12/01 20:45:55;;;;;;;9.52;4.63;;;;;;;;;;5094905;28;20073;-70
2023/12/01 20:48:22;;;;;;;9.98;4.25;;;;;;;;;;5094785;28;20028;-66
2023/12/01 20:50:47;;;;;;;5.18;3.90;;;;;;;;;;5095047;28;20020;-66
2023/12/01 20:53:13;;;;;;;5.90;4.40;;;;;;;;;;5094774;28;20397;-66
2023/12/01 20:55:39;;;;;;;5.88;4.00;;;;;;;;;;5094552;28;20118;-67
2023/12/01 20:58:05;;;;;;;5.22;3.70;;;;;;;;;;5094520;28;20027;-67
2023/12/01 21:00:33;;;;;;;8.45;3.63;;;;;;;;;;5094645;28;20028;-67
2023/12/01 21:03:01;;;;;;;3.92;3.53;;;;;;;;;;5094806;28;20391;-66
2023/12/01 21:05:27;;;;;;;4.80;3.70;;;;;;;;;;5094316;28;20071;-66
2023/12/01 21:07:54;;;;;;;4.78;3.55;;;;;;;;;;5094496;28;20477;-66
2023/12/01 21:10:20;;;;;;;8.43;3.75;;;;;;;;;;5094328;28;20060;-65
2023/12/01 21:12:46;;;;;;;6.72;3.63;;;;;;;;;;5094364;28;20063;-66
2023/12/01 21:15:13;;;;;;;4.55;3.10;;;;;;;;;;5092903;28;20027;-67
2023/12/01 21:17:38;;;;;;;7.75;3.55;;;;;;;;;;5094190;28;20024;-69
2023/12/01 21:20:05;;;;;;;7.18;3.45;;;;;;;;;;5094180;28;20031;-70
2023/12/01 21:22:30;;;;;;;7.65;3.63;;;;;;;;;;5094141;28;20079;-66
2023/12/01 21:24:56;;;;;;;7.10;4.07;;;;;;;;;;5094067;28;20042;-65
2023/12/01 21:27:21;;;;;;;11.27;3.58;;;;;;;;;;5094053;28;20077;-66
2023/12/01 21:29:47;;;;;;;7.20;3.25;;;;;;;;;;5092727;28;20029;-66
2023/12/01 21:32:12;;;;;;;5.65;3.28;;;;;;;;;;5093857;28;20425;-66
2023/12/01 21:34:38;;;;;;;5.00;3.33;;;;;;;;;;5092576;28;20027;-66
2023/12/01 21:37:03;;;;;;;7.15;3.10;;;;;;;;;;5093973;28;20038;-65
2023/12/01 21:39:29;;;;;;;4.57;3.50;;;;;;;;;;5094152;28;20016;-67
2023/12/01 21:41:54;;;;;;;3.65;2.90;;;;;;;;;;5093808;28;20024;-65
2023/12/01 21:44:20;;;;;;;11.95;4.55;;;;;;;;;;5093778;28;20020;-65
2023/12/01 21:46:45;;;;;;;5.32;3.13;;;;;;;;;;5093691;28;20027;-65
2023/12/01 21:49:11;;;;;;;5.72;3.33;;;;;;;;;;5092760;28;20031;-65
2023/12/01 21:51:37;;;;;;;5.47;3.08;;;;;;;;;;5093635;28;20028;-66
2023/12/01 21:54:04;;;;;;;3.88;3.33;;;;;;;;;;5093511;28;20020;-67
2023/12/01 21:56:30;;;;;;;9.63;3.30;;;;;;;;;;5093415;28;20027;-67
2023/12/01 21:58:55;;;;;;;6.60;3.10;;;;;;;;;;5093478;28;20073;-71
2023/12/01 22:01:21;;;;;;;4.22;3.08;;;;;;;;;;5093337;28;20461;-67
2023/12/01 22:03:46;;;;;;;4.95;2.97;;;;;;;;;;5093245;28;20051;-68
2023/12/01 22:06:12;;;;;;;6.85;3.05;;;;;;;;;;5093381;28;20095;-68
2023/12/01 22:08:38;;;;;;;5.80;3.05;;;;;;;;;;5093265;28;20068;-66
2023/12/01 22:11:04;;;;;;;6.60;3.60;;;;;;;;;;5093283;28;20063;-68
2023/12/01 22:13:30;;;;;;;7.05;3.17;;;;;;;;;;5092515;28;20059;-70
2023/12/01 22:15:55;;;;;;;4.97;4.18;;;;;;;;;;5093050;28;20108;-68
2023/12/01 22:18:21;;;;;;;9.60;2.88;;;;;;;;;;5093406;28;20031;-69
2023/12/01 22:20:46;;;;;;;6.65;3.35;;;;;;;;;;5091778;28;20024;-71
2023/12/01 22:23:12;;;;;;;3.65;3.00;;;;;;;;;;5092940;28;20073;-69
2023/12/01 22:25:37;;;;;;;4.22;2.92;;;;;;;;;;5093205;28;20028;-68
2023/12/01 22:28:03;;;;;;;3.38;2.78;;;;;;;;;;5074600;28;20035;-68
2023/12/01 22:30:29;;;;;;;3.60;3.00;;;;;;;;;;5092774;28;20032;-67
2023/12/01 22:32:54;;;;;;;3.92;2.92;;;;;;;;;;5092927;28;20043;-67
2023/12/01 22:35:20;;;;;;;7.53;3.45;;;;;;;;;;5092731;28;20503;-69
2023/12/01 22:37:49;;;;;;;3.28;2.60;;;;;;;;;;5092839;28;20039;-69
2023/12/01 22:40:15;;;;;;;4.90;2.75;;;;;;;;;;5092943;28;20024;-67
2023/12/01 22:42:41;;;;;;;3.20;2.90;;;;;;;;;;5092636;28;20387;-70
2023/12/01 22:45:07;;;;;;;4.00;2.85;;;;;;;;;;5092670;28;20484;-70
2023/12/01 22:47:32;;;;;;;5.82;3.03;;;;;;;;;;5092779;28;20057;-65
2023/12/01 22:49:58;;;;;;;4.15;2.80;;;;;;;;;;5093000;28;20028;-68
2023/12/01 22:52:23;;;;;;;3.90;2.80;;;;;;;;;;5092962;28;20032;-69
2023/12/01 22:54:50;;;;;;;4.82;2.83;;;;;;;;;;5092624;28;20489;-68
2023/12/01 22:57:15;;;;;;;6.60;3.03;;;;;;;;;;5092633;28;20035;-70
2023/12/01 22:59:41;;;;;;;5.72;2.90;;;;;;;;;;5092499;28;20024;-68
2023/12/01 23:02:06;;;;;;;8.30;3.15;;;;;;;;;;5092534;28;20054;-68
2023/12/01 23:04:32;;;;;;;3.92;2.60;;;;;;;;;;5092296;28;20040;-67
2023/12/01 23:06:57;;;;;;;4.68;2.60;;;;;;;;;;5092503;28;20062;-67
2023/12/01 23:09:23;;;;;;;4.43;3.20;;;;;;;;;;5092047;28;20024;-69
2023/12/01 23:11:49;;;;;;;4.63;2.95;;;;;;;;;;5092236;28;20020;-70
2023/12/01 23:14:14;;;;;;;6.20;2.95;;;;;;;;;;5090827;28;20028;-70
2023/12/01 23:16:40;;;;;;;9.40;2.90;;;;;;;;;;5092228;28;20487;-70
2023/12/01 23:19:05;;;;;;;3.85;2.70;;;;;;;;;;5092183;28;20019;-69
2023/12/01 23:21:31;;;;;;;6.65;2.72;;;;;;;;;;5092433;28;20547;-71
2023/12/01 23:23:56;;;;;;;5.43;3.15;;;;;;;;;;5092211;28;20395;-73
2023/12/01 23:26:22;;;;;;;5.88;2.78;;;;;;;;;;5078606;28;20017;-69
2023/12/01 23:28:48;;;;;;;3.20;2.70;;;;;;;;;;5072080;28;20469;-69
2023/12/01 23:31:16;;;;;;;4.72;2.80;;;;;;;;;;5071946;28;20040;-72
2023/12/01 23:33:42;;;;;;;3.45;2.75;;;;;;;;;;5071687;28;20032;-71
2023/12/01 23:36:08;;;;;;;5.60;2.72;;;;;;;;;;5071708;28;20028;-73
2023/12/01 23:38:33;;;;;;;3.88;2.72;;;;;;;;;;5071705;28;20081;-67
2023/12/01 23:40:59;;;;;;;5.07;2.90;;;;;;;;;;5071979;28;20028;-71
2023/12/01 23:43:24;;;;;;;4.57;2.55;;;;;;;;;;5072127;28;20384;-70
2023/12/01 23:45:50;;;;;;;3.28;2.60;;;;;;;;;;5071841;28;20496;-71
2023/12/01 23:48:15;;;;;;;3.95;2.72;;;;;;;;;;5071877;28;20028;-68
2023/12/01 23:50:41;;;;;;;2.78;2.40;;;;;;;;;;5071733;28;20431;-73
2023/12/01 23:53:06;;;;;;;8.55;2.80;;;;;;;;;;5071690;28;20103;-68
2023/12/01 23:55:32;;;;;;;4.32;2.78;;;;;;;;;;5070265;28;20033;-70
2023/12/01 23:57:57;;;;;;;7.30;2.70;;;;;;;;;;5071733;28;20384;-67
